PWSweather.com
Personal Weather Stations
Station Observations
KOHAVON11
Long Road Station, Avon, OH 44011

Long Road StationAvon, OH 44011

Lat: 41.437, Lon: -82.0477

Elevation: 686

Station Type: Davis Vantage Pro2

http://www.avon-weather.com

High Low Average
Temperature 35.4°F1.9°F 20.0°F-6.7°F 26.3°F-3.2°F
Dew Point 31.1°F-0.5°F 16.2°F-8.8°F 22.6°F-5.2°F
Winds 19.0 mph NE30.6 mph NE Calm Calm 7.6 mph 12.2 mph
Wind Gusts 27.0 mph43.5 mph -- 15.3 mph24.6 mph
Humidity 88% 79% 85%
Pressure 29.94 in1013.90 in 29.71 in1006.10 in -
Precipitation 0.00 in0.00 in - -
Hour Temp Dew Point Humidity Winds Wind Gusts Pressure Precip Precip Rate Daily Precip Total
12:01 AM 35.3°F1.8°C 30.3°F-0.9°C 82% 3.0 mph WSW4.8 kmh WSW 11.0 mph17.7 kmh 29.71 in1006.1 mb 0.00 in0.0 mm 0.00 in/hr0.0 mm/hr 0.00 in0.0 mm
12:06 AM 35.3°F1.8°C 30.6°F-0.8°C 83% 4.0 mph WSW6.4 kmh WSW 11.0 mph17.7 kmh 29.71 in1006.1 mb 0.00 in0.0 mm 0.00 in/hr0.0 mm/hr 0.00 in0.0 mm
12:11 AM 35.4°F1.9°C 30.7°F-0.7°C 83% 7.0 mph WSW11.3 kmh WSW 11.0 mph17.7 kmh 29.71 in1006.1 mb 0.00 in0.0 mm 0.00 in/hr0.0 mm/hr 0.00 in0.0 mm
12:16 AM 35.4°F1.9°C 31.0°F-0.6°C 84% 5.0 mph WSW8.0 kmh WSW 14.0 mph22.5 kmh 29.71 in1006.1 mb 0.00 in0.0 mm 0.00 in/hr0.0 mm/hr 0.00 in0.0 mm
12:21 AM 35.3°F1.8°C 31.0°F-0.6°C 84% 7.0 mph WSW11.3 kmh WSW 14.0 mph22.5 kmh 29.71 in1006.1 mb 0.00 in0.0 mm 0.00 in/hr0.0 mm/hr 0.00 in0.0 mm
12:26 AM 35.2°F1.8°C 30.9°F-0.6°C 84% 8.0 mph WSW12.9 kmh WSW 14.0 mph22.5 kmh 29.71 in1006.1 mb 0.00 in0.0 mm 0.00 in/hr0.0 mm/hr 0.00 in0.0 mm
12:31 AM 35.1°F1.7°C 31.1°F-0.5°C 85% 4.0 mph WSW6.4 kmh WSW 14.0 mph22.5 kmh 29.71 in1006.1 mb 0.00 in0.0 mm 0.00 in/hr0.0 mm/hr 0.00 in0.0 mm
12:36 AM 35.0°F1.7°C 31.0°F-0.6°C 85% 4.0 mph SW6.4 kmh SW 9.0 mph14.5 kmh 29.71 in1006.1 mb 0.00 in0.0 mm 0.00 in/hr0.0 mm/hr 0.00 in0.0 mm
12:41 AM 34.8°F1.6°C 30.8°F-0.7°C 85% 6.0 mph WSW9.7 kmh WSW 9.0 mph14.5 kmh 29.71 in1006.1 mb 0.00 in0.0 mm 0.00 in/hr0.0 mm/hr 0.00 in0.0 mm
12:46 AM 34.6°F1.4°C 30.6°F-0.8°C 85% 2.0 mph WSW3.2 kmh WSW 7.0 mph11.3 kmh 29.71 in1006.1 mb 0.00 in0.0 mm 0.00 in/hr0.0 mm/hr 0.00 in0.0 mm
12:51 AM 34.5°F1.4°C 30.8°F-0.7°C 86% 4.0 mph SW6.4 kmh SW 7.0 mph11.3 kmh 29.71 in1006.1 mb 0.00 in0.0 mm 0.00 in/hr0.0 mm/hr 0.00 in0.0 mm
12:56 AM 34.4°F1.3°C 30.7°F-0.7°C 86% 3.0 mph SW4.8 kmh SW 5.0 mph8.0 kmh 29.71 in1006.1 mb 0.00 in0.0 mm 0.00 in/hr0.0 mm/hr 0.00 in0.0 mm
01:01 AM 34.4°F1.3°C 30.7°F-0.7°C 86% 3.0 mph SW4.8 kmh SW 5.0 mph8.0 kmh 29.72 in1006.4 mb 0.00 in0.0 mm 0.00 in/hr0.0 mm/hr 0.00 in0.0 mm
01:06 AM 34.4°F1.3°C 30.7°F-0.7°C 86% 3.0 mph SW4.8 kmh SW 5.0 mph8.0 kmh 29.72 in1006.4 mb 0.00 in0.0 mm 0.00 in/hr0.0 mm/hr 0.00 in0.0 mm
01:11 AM 34.4°F1.3°C 31.0°F-0.6°C 87% 5.0 mph WSW8.0 kmh WSW 7.0 mph11.3 kmh 29.72 in1006.4 mb 0.00 in0.0 mm 0.00 in/hr0.0 mm/hr 0.00 in0.0 mm
01:16 AM 34.4°F1.3°C 31.0°F-0.6°C 87% 5.0 mph WSW8.0 kmh WSW 9.0 mph14.5 kmh 29.72 in1006.4 mb 0.00 in0.0 mm 0.00 in/hr0.0 mm/hr 0.00 in0.0 mm
01:21 AM 34.4°F1.3°C 31.0°F-0.6°C 87% 7.0 mph WSW11.3 kmh WSW 10.0 mph16.1 kmh 29.72 in1006.4 mb 0.00 in0.0 mm 0.00 in/hr0.0 mm/hr 0.00 in0.0 mm
01:26 AM 34.4°F1.3°C 31.0°F-0.6°C 87% 5.0 mph SW8.0 kmh SW 10.0 mph16.1 kmh 29.72 in1006.4 mb 0.00 in0.0 mm 0.00 in/hr0.0 mm/hr 0.00 in0.0 mm
01:31 AM 34.4°F1.3°C 31.0°F-0.6°C 87% 8.0 mph SW12.9 kmh SW 10.0 mph16.1 kmh 29.72 in1006.4 mb 0.00 in0.0 mm 0.00 in/hr0.0 mm/hr 0.00 in0.0 mm
01:36 AM 34.4°F1.3°C 31.0°F-0.6°C 87% 7.0 mph WSW11.3 kmh WSW 10.0 mph16.1 kmh 29.72 in1006.4 mb 0.00 in0.0 mm 0.00 in/hr0.0 mm/hr 0.00 in0.0 mm
01:41 AM 34.4°F1.3°C 31.0°F-0.6°C 87% 2.0 mph WSW3.2 kmh WSW 10.0 mph16.1 kmh 29.72 in1006.4 mb 0.00 in0.0 mm 0.00 in/hr0.0 mm/hr 0.00 in0.0 mm
01:46 AM 34.4°F1.3°C 31.0°F-0.6°C 87% 3.0 mph WSW4.8 kmh WSW 10.0 mph16.1 kmh 29.72 in1006.4 mb 0.00 in0.0 mm 0.00 in/hr0.0 mm/hr 0.00 in0.0 mm
01:51 AM 34.3°F1.3°C 30.9°F-0.6°C 87% 3.0 mph WSW4.8 kmh WSW 8.0 mph12.9 kmh 29.72 in1006.4 mb 0.00 in0.0 mm 0.00 in/hr0.0 mm/hr 0.00 in0.0 mm
01:56 AM 34.3°F1.3°C 30.9°F-0.6°C 87% 1.0 mph WSW1.6 kmh WSW 8.0 mph12.9 kmh 29.73 in1006.8 mb 0.00 in0.0 mm 0.00 in/hr0.0 mm/hr 0.00 in0.0 mm
02:01 AM 34.3°F1.3°C 30.9°F-0.6°C 87% 2.0 mph WSW3.2 kmh WSW 6.0 mph9.7 kmh 29.73 in1006.8 mb 0.00 in0.0 mm 0.00 in/hr0.0 mm/hr 0.00 in0.0 mm
02:06 AM 34.2°F1.2°C 30.8°F-0.7°C 87% 1.0 mph WSW1.6 kmh WSW 6.0 mph9.7 kmh 29.73 in1006.8 mb 0.00 in0.0 mm 0.00 in/hr0.0 mm/hr 0.00 in0.0 mm
02:11 AM 34.2°F1.2°C 30.8°F-0.7°C 87% 1.0 mph WSW1.6 kmh WSW 3.0 mph4.8 kmh 29.73 in1006.8 mb 0.00 in0.0 mm 0.00 in/hr0.0 mm/hr 0.00 in0.0 mm
02:16 AM 34.1°F1.2°C 30.7°F-0.7°C 87% 1.0 mph SW1.6 kmh SW 4.0 mph6.4 kmh 29.73 in1006.8 mb 0.00 in0.0 mm 0.00 in/hr0.0 mm/hr 0.00 in0.0 mm
02:21 AM 34.1°F1.2°C 30.7°F-0.7°C 87% Calm Calm 4.0 mph6.4 kmh 29.73 in1006.8 mb 0.00 in0.0 mm 0.00 in/hr0.0 mm/hr 0.00 in0.0 mm
02:26 AM 34.1°F1.2°C 30.7°F-0.7°C 87% 3.0 mph SW4.8 kmh SW 5.0 mph8.0 kmh 29.73 in1006.8 mb 0.00 in0.0 mm 0.00 in/hr0.0 mm/hr 0.00 in0.0 mm
02:31 AM 34.1°F1.2°C 30.7°F-0.7°C 87% 2.0 mph SW3.2 kmh SW 5.0 mph8.0 kmh 29.73 in1006.8 mb 0.00 in0.0 mm 0.00 in/hr0.0 mm/hr 0.00 in0.0 mm
02:36 AM 34.1°F1.2°C 30.9°F-0.6°C 88% 2.0 mph SSW3.2 kmh SSW 5.0 mph8.0 kmh 29.74 in1007.1 mb 0.00 in0.0 mm 0.00 in/hr0.0 mm/hr 0.00 in0.0 mm
02:41 AM 34.1°F1.2°C 30.9°F-0.6°C 88% 2.0 mph WSW3.2 kmh WSW 5.0 mph8.0 kmh 29.74 in1007.1 mb 0.00 in0.0 mm 0.00 in/hr0.0 mm/hr 0.00 in0.0 mm
02:46 AM 34.1°F1.2°C 30.9°F-0.6°C 88% Calm Calm 4.0 mph6.4 kmh 29.74 in1007.1 mb 0.00 in0.0 mm 0.00 in/hr0.0 mm/hr 0.00 in0.0 mm
02:51 AM 34.1°F1.2°C 30.9°F-0.6°C 88% 2.0 mph SW3.2 kmh SW 4.0 mph6.4 kmh 29.74 in1007.1 mb 0.00 in0.0 mm 0.00 in/hr0.0 mm/hr 0.00 in0.0 mm
02:56 AM 34.1°F1.2°C 30.9°F-0.6°C 88% 1.0 mph SW1.6 kmh SW 4.0 mph6.4 kmh 29.74 in1007.1 mb 0.00 in0.0 mm 0.00 in/hr0.0 mm/hr 0.00 in0.0 mm
03:01 AM 34.1°F1.2°C 30.9°F-0.6°C 88% Calm Calm -- 29.74 in1007.1 mb 0.00 in0.0 mm 0.00 in/hr0.0 mm/hr 0.00 in0.0 mm
03:06 AM 34.1°F1.2°C 30.7°F-0.7°C 87% Calm Calm 3.0 mph4.8 kmh 29.74 in1007.1 mb 0.00 in0.0 mm 0.00 in/hr0.0 mm/hr 0.00 in0.0 mm
03:11 AM 34.1°F1.2°C 30.9°F-0.6°C 88% Calm Calm -- 29.74 in1007.1 mb 0.00 in0.0 mm 0.00 in/hr0.0 mm/hr 0.00 in0.0 mm
03:16 AM 34.2°F1.2°C 31.0°F-0.6°C 88% Calm Calm -- 29.74 in1007.1 mb 0.00 in0.0 mm 0.00 in/hr0.0 mm/hr 0.00 in0.0 mm
03:21 AM 34.2°F1.2°C 31.0°F-0.6°C 88% Calm Calm -- 29.74 in1007.1 mb 0.00 in0.0 mm 0.00 in/hr0.0 mm/hr 0.00 in0.0 mm
03:26 AM 34.2°F1.2°C 31.0°F-0.6°C 88% Calm Calm -- 29.74 in1007.1 mb 0.00 in0.0 mm 0.00 in/hr0.0 mm/hr 0.00 in0.0 mm
03:31 AM 34.2°F1.2°C 31.0°F-0.6°C 88% Calm Calm -- 29.74 in1007.1 mb 0.00 in0.0 mm 0.00 in/hr0.0 mm/hr 0.00 in0.0 mm
03:36 AM 34.2°F1.2°C 31.0°F-0.6°C 88% Calm Calm -- 29.74 in1007.1 mb 0.00 in0.0 mm 0.00 in/hr0.0 mm/hr 0.00 in0.0 mm
03:41 AM 34.2°F1.2°C 31.0°F-0.6°C 88% Calm Calm -- 29.75 in1007.5 mb 0.00 in0.0 mm 0.00 in/hr0.0 mm/hr 0.00 in0.0 mm
03:46 AM 34.2°F1.2°C 31.0°F-0.6°C 88% Calm Calm -- 29.75 in1007.5 mb 0.00 in0.0 mm 0.00 in/hr0.0 mm/hr 0.00 in0.0 mm
03:51 AM 34.2°F1.2°C 31.0°F-0.6°C 88% Calm Calm -- 29.75 in1007.5 mb 0.00 in0.0 mm 0.00 in/hr0.0 mm/hr 0.00 in0.0 mm
03:56 AM 34.2°F1.2°C 31.0°F-0.6°C 88% Calm Calm -- 29.75 in1007.5 mb 0.00 in0.0 mm 0.00 in/hr0.0 mm/hr 0.00 in0.0 mm
04:01 AM 34.3°F1.3°C 31.1°F-0.5°C 88% Calm Calm -- 29.74 in1007.1 mb 0.00 in0.0 mm 0.00 in/hr0.0 mm/hr 0.00 in0.0 mm
04:06 AM 34.3°F1.3°C 30.9°F-0.6°C 87% Calm Calm -- 29.74 in1007.1 mb 0.00 in0.0 mm 0.00 in/hr0.0 mm/hr 0.00 in0.0 mm
04:11 AM 34.3°F1.3°C 30.9°F-0.6°C 87% Calm Calm -- 29.74 in1007.1 mb 0.00 in0.0 mm 0.00 in/hr0.0 mm/hr 0.00 in0.0 mm
04:16 AM 34.3°F1.3°C 30.9°F-0.6°C 87% Calm Calm -- 29.74 in1007.1 mb 0.00 in0.0 mm 0.00 in/hr0.0 mm/hr 0.00 in0.0 mm
04:21 AM 34.3°F1.3°C 30.9°F-0.6°C 87% Calm Calm -- 29.74 in1007.1 mb 0.00 in0.0 mm 0.00 in/hr0.0 mm/hr 0.00 in0.0 mm
04:26 AM 34.3°F1.3°C 30.9°F-0.6°C 87% Calm Calm -- 29.75 in1007.5 mb 0.00 in0.0 mm 0.00 in/hr0.0 mm/hr 0.00 in0.0 mm
04:31 AM 34.3°F1.3°C 30.9°F-0.6°C 87% Calm Calm -- 29.75 in1007.5 mb 0.00 in0.0 mm 0.00 in/hr0.0 mm/hr 0.00 in0.0 mm
04:36 AM 34.3°F1.3°C 30.9°F-0.6°C 87% Calm Calm -- 29.75 in1007.5 mb 0.00 in0.0 mm 0.00 in/hr0.0 mm/hr 0.00 in0.0 mm
04:41 AM 34.3°F1.3°C 30.9°F-0.6°C 87% Calm Calm -- 29.75 in1007.5 mb 0.00 in0.0 mm 0.00 in/hr0.0 mm/hr 0.00 in0.0 mm
04:46 AM 34.2°F1.2°C 30.8°F-0.7°C 87% Calm Calm -- 29.75 in1007.5 mb 0.00 in0.0 mm 0.00 in/hr0.0 mm/hr 0.00 in0.0 mm
04:51 AM 34.2°F1.2°C 30.8°F-0.7°C 87% Calm Calm -- 29.76 in1007.8 mb 0.00 in0.0 mm 0.00 in/hr0.0 mm/hr 0.00 in0.0 mm
04:56 AM 34.2°F1.2°C 30.8°F-0.7°C 87% Calm Calm -- 29.76 in1007.8 mb 0.00 in0.0 mm 0.00 in/hr0.0 mm/hr 0.00 in0.0 mm
05:01 AM 34.2°F1.2°C 30.8°F-0.7°C 87% Calm Calm -- 29.75 in1007.5 mb 0.00 in0.0 mm 0.00 in/hr0.0 mm/hr 0.00 in0.0 mm
05:06 AM 34.1°F1.2°C 30.7°F-0.7°C 87% Calm Calm -- 29.75 in1007.5 mb 0.00 in0.0 mm 0.00 in/hr0.0 mm/hr 0.00 in0.0 mm
05:11 AM 34.0°F1.1°C 30.9°F-0.6°C 88% Calm Calm -- 29.75 in1007.5 mb 0.00 in0.0 mm 0.00 in/hr0.0 mm/hr 0.00 in0.0 mm
05:16 AM 34.0°F1.1°C 30.9°F-0.6°C 88% Calm Calm -- 29.76 in1007.8 mb 0.00 in0.0 mm 0.00 in/hr0.0 mm/hr 0.00 in0.0 mm
05:21 AM 33.8°F1.0°C 30.4°F-0.9°C 87% Calm Calm -- 29.75 in1007.5 mb 0.00 in0.0 mm 0.00 in/hr0.0 mm/hr 0.00 in0.0 mm
05:26 AM 33.8°F1.0°C 30.7°F-0.7°C 88% Calm Calm -- 29.76 in1007.8 mb 0.00 in0.0 mm 0.00 in/hr0.0 mm/hr 0.00 in0.0 mm
05:31 AM 33.7°F0.9°C 30.6°F-0.8°C 88% Calm Calm -- 29.76 in1007.8 mb 0.00 in0.0 mm 0.00 in/hr0.0 mm/hr 0.00 in0.0 mm
05:36 AM 33.7°F0.9°C 30.6°F-0.8°C 88% Calm Calm -- 29.76 in1007.8 mb 0.00 in0.0 mm 0.00 in/hr0.0 mm/hr 0.00 in0.0 mm
05:41 AM 33.6°F0.9°C 30.5°F-0.8°C 88% Calm Calm -- 29.76 in1007.8 mb 0.00 in0.0 mm 0.00 in/hr0.0 mm/hr 0.00 in0.0 mm
05:46 AM 33.6°F0.9°C 30.5°F-0.8°C 88% Calm Calm -- 29.76 in1007.8 mb 0.00 in0.0 mm 0.00 in/hr0.0 mm/hr 0.00 in0.0 mm
05:51 AM 33.6°F0.9°C 30.5°F-0.8°C 88% Calm Calm -- 29.76 in1007.8 mb 0.00 in0.0 mm 0.00 in/hr0.0 mm/hr 0.00 in0.0 mm
05:56 AM 33.6°F0.9°C 30.5°F-0.8°C 88% Calm Calm -- 29.76 in1007.8 mb 0.00 in0.0 mm 0.00 in/hr0.0 mm/hr 0.00 in0.0 mm
06:01 AM 33.6°F0.9°C 30.5°F-0.8°C 88% Calm Calm -- 29.76 in1007.8 mb 0.00 in0.0 mm 0.00 in/hr0.0 mm/hr 0.00 in0.0 mm
06:06 AM 33.5°F0.8°C 30.4°F-0.9°C 88% Calm Calm -- 29.76 in1007.8 mb 0.00 in0.0 mm 0.00 in/hr0.0 mm/hr 0.00 in0.0 mm
06:11 AM 33.4°F0.8°C 30.3°F-0.9°C 88% Calm Calm -- 29.76 in1007.8 mb 0.00 in0.0 mm 0.00 in/hr0.0 mm/hr 0.00 in0.0 mm
06:16 AM 33.3°F0.7°C 30.2°F-1.0°C 88% Calm Calm -- 29.76 in1007.8 mb 0.00 in0.0 mm 0.00 in/hr0.0 mm/hr 0.00 in0.0 mm
06:21 AM 33.3°F0.7°C 30.2°F-1.0°C 88% Calm Calm -- 29.77 in1008.1 mb 0.00 in0.0 mm 0.00 in/hr0.0 mm/hr 0.00 in0.0 mm
06:26 AM 33.2°F0.7°C 30.1°F-1.1°C 88% Calm Calm -- 29.77 in1008.1 mb 0.00 in0.0 mm 0.00 in/hr0.0 mm/hr 0.00 in0.0 mm
06:31 AM 33.2°F0.7°C 30.1°F-1.1°C 88% Calm Calm -- 29.77 in1008.1 mb 0.00 in0.0 mm 0.00 in/hr0.0 mm/hr 0.00 in0.0 mm
06:36 AM 33.2°F0.7°C 30.1°F-1.1°C 88% Calm Calm -- 29.77 in1008.1 mb 0.00 in0.0 mm 0.00 in/hr0.0 mm/hr 0.00 in0.0 mm
06:41 AM 33.2°F0.7°C 30.1°F-1.1°C 88% Calm Calm -- 29.77 in1008.1 mb 0.00 in0.0 mm 0.00 in/hr0.0 mm/hr 0.00 in0.0 mm
06:46 AM 32.9°F0.5°C 29.8°F-1.2°C 88% 9.0 mph NE14.5 kmh NE 15.0 mph24.1 kmh 29.78 in1008.5 mb 0.00 in0.0 mm 0.00 in/hr0.0 mm/hr 0.00 in0.0 mm
06:51 AM 32.3°F0.2°C 29.2°F-1.6°C 88% 6.0 mph NE9.7 kmh NE 16.0 mph25.7 kmh 29.79 in1008.8 mb 0.00 in0.0 mm 0.00 in/hr0.0 mm/hr 0.00 in0.0 mm
06:56 AM 31.8°F-0.1°C 28.7°F-1.8°C 88% 6.0 mph NE9.7 kmh NE 16.0 mph25.7 kmh 29.79 in1008.8 mb 0.00 in0.0 mm 0.00 in/hr0.0 mm/hr 0.00 in0.0 mm
07:01 AM 31.4°F-0.3°C 28.3°F-2.1°C 88% 7.0 mph NE11.3 kmh NE 16.0 mph25.7 kmh 29.80 in1009.1 mb 0.00 in0.0 mm 0.00 in/hr0.0 mm/hr 0.00 in0.0 mm
07:06 AM 31.1°F-0.5°C 28.0°F-2.2°C 88% 4.0 mph ENE6.4 kmh ENE 16.0 mph25.7 kmh 29.80 in1009.1 mb 0.00 in0.0 mm 0.00 in/hr0.0 mm/hr 0.00 in0.0 mm
07:11 AM 30.8°F-0.7°C 27.7°F-2.4°C 88% 8.0 mph NE12.9 kmh NE 13.0 mph20.9 kmh 29.80 in1009.1 mb 0.00 in0.0 mm 0.00 in/hr0.0 mm/hr 0.00 in0.0 mm
07:16 AM 30.4°F-0.9°C 27.3°F-2.6°C 88% 7.0 mph NE11.3 kmh NE 15.0 mph24.1 kmh 29.80 in1009.1 mb 0.00 in0.0 mm 0.00 in/hr0.0 mm/hr 0.00 in0.0 mm
07:21 AM 30.1°F-1.1°C 27.0°F-2.8°C 88% 9.0 mph NE14.5 kmh NE 15.0 mph24.1 kmh 29.81 in1009.5 mb 0.00 in0.0 mm 0.00 in/hr0.0 mm/hr 0.00 in0.0 mm
07:26 AM 29.9°F-1.2°C 26.8°F-2.9°C 88% 10.0 mph NE16.1 kmh NE 15.0 mph24.1 kmh 29.81 in1009.5 mb 0.00 in0.0 mm 0.00 in/hr0.0 mm/hr 0.00 in0.0 mm
07:31 AM 29.9°F-1.2°C 26.8°F-2.9°C 88% 9.0 mph NE14.5 kmh NE 15.0 mph24.1 kmh 29.81 in1009.5 mb 0.00 in0.0 mm 0.00 in/hr0.0 mm/hr 0.00 in0.0 mm
07:36 AM 29.7°F-1.3°C 26.3°F-3.2°C 87% 6.0 mph NE9.7 kmh NE 14.0 mph22.5 kmh 29.81 in1009.5 mb 0.00 in0.0 mm 0.00 in/hr0.0 mm/hr 0.00 in0.0 mm
07:41 AM 29.7°F-1.3°C 26.3°F-3.2°C 87% 9.0 mph NE14.5 kmh NE 15.0 mph24.1 kmh 29.81 in1009.5 mb 0.00 in0.0 mm 0.00 in/hr0.0 mm/hr 0.00 in0.0 mm
07:46 AM 29.7°F-1.3°C 26.3°F-3.2°C 87% 8.0 mph NE12.9 kmh NE 15.0 mph24.1 kmh 29.81 in1009.5 mb 0.00 in0.0 mm 0.00 in/hr0.0 mm/hr 0.00 in0.0 mm
07:51 AM 29.7°F-1.3°C 26.3°F-3.2°C 87% 8.0 mph NNE12.9 kmh NNE 15.0 mph24.1 kmh 29.82 in1009.8 mb 0.00 in0.0 mm 0.00 in/hr0.0 mm/hr 0.00 in0.0 mm
07:56 AM 29.7°F-1.3°C 26.3°F-3.2°C 87% 5.0 mph NE8.0 kmh NE 15.0 mph24.1 kmh 29.82 in1009.8 mb 0.00 in0.0 mm 0.00 in/hr0.0 mm/hr 0.00 in0.0 mm
08:01 AM 29.6°F-1.3°C 26.2°F-3.2°C 87% 8.0 mph NE12.9 kmh NE 15.0 mph24.1 kmh 29.82 in1009.8 mb 0.00 in0.0 mm 0.00 in/hr0.0 mm/hr 0.00 in0.0 mm
08:06 AM 29.5°F-1.4°C 26.1°F-3.3°C 87% 9.0 mph ENE14.5 kmh ENE 17.0 mph27.4 kmh 29.82 in1009.8 mb 0.00 in0.0 mm 0.00 in/hr0.0 mm/hr 0.00 in0.0 mm
08:11 AM 29.4°F-1.4°C 26.0°F-3.3°C 87% 13.0 mph NE20.9 kmh NE 17.0 mph27.4 kmh 29.82 in1009.8 mb 0.00 in0.0 mm 0.00 in/hr0.0 mm/hr 0.00 in0.0 mm
08:16 AM 29.3°F-1.5°C 26.0°F-3.3°C 87% 10.0 mph ENE16.1 kmh ENE 17.0 mph27.4 kmh 29.82 in1009.8 mb 0.00 in0.0 mm 0.00 in/hr0.0 mm/hr 0.00 in0.0 mm
08:21 AM 29.3°F-1.5°C 26.0°F-3.3°C 87% 11.0 mph ENE17.7 kmh ENE 17.0 mph27.4 kmh 29.82 in1009.8 mb 0.00 in0.0 mm 0.00 in/hr0.0 mm/hr 0.00 in0.0 mm
08:26 AM 29.2°F-1.6°C 25.9°F-3.4°C 87% 3.0 mph NE4.8 kmh NE 16.0 mph25.7 kmh 29.83 in1010.2 mb 0.00 in0.0 mm 0.00 in/hr0.0 mm/hr 0.00 in0.0 mm
08:31 AM 29.2°F-1.6°C 25.9°F-3.4°C 87% 5.0 mph NE8.0 kmh NE 16.0 mph25.7 kmh 29.83 in1010.2 mb 0.00 in0.0 mm 0.00 in/hr0.0 mm/hr 0.00 in0.0 mm
08:36 AM 29.2°F-1.6°C 25.9°F-3.4°C 87% 7.0 mph NE11.3 kmh NE 16.0 mph25.7 kmh 29.83 in1010.2 mb 0.00 in0.0 mm 0.00 in/hr0.0 mm/hr 0.00 in0.0 mm
08:41 AM 29.1°F-1.6°C 25.8°F-3.4°C 87% 6.0 mph NE9.7 kmh NE 16.0 mph25.7 kmh 29.83 in1010.2 mb 0.00 in0.0 mm 0.00 in/hr0.0 mm/hr 0.00 in0.0 mm
08:46 AM 29.1°F-1.6°C 25.8°F-3.4°C 87% 7.0 mph NNE11.3 kmh NNE 18.0 mph29.0 kmh 29.83 in1010.2 mb 0.00 in0.0 mm 0.00 in/hr0.0 mm/hr 0.00 in0.0 mm
08:51 AM 29.0°F-1.7°C 25.7°F-3.5°C 87% 8.0 mph NE12.9 kmh NE 18.0 mph29.0 kmh 29.83 in1010.2 mb 0.00 in0.0 mm 0.00 in/hr0.0 mm/hr 0.00 in0.0 mm
08:56 AM 28.9°F-1.7°C 25.6°F-3.6°C 87% 16.0 mph NE25.7 kmh NE 21.0 mph33.8 kmh 29.84 in1010.5 mb 0.00 in0.0 mm 0.00 in/hr0.0 mm/hr 0.00 in0.0 mm
09:01 AM 28.8°F-1.8°C 25.5°F-3.6°C 87% 6.0 mph NE9.7 kmh NE 22.0 mph35.4 kmh 29.84 in1010.5 mb 0.00 in0.0 mm 0.00 in/hr0.0 mm/hr 0.00 in0.0 mm
09:06 AM 28.7°F-1.8°C 25.6°F-3.6°C 88% 11.0 mph NE17.7 kmh NE 22.0 mph35.4 kmh 29.84 in1010.5 mb 0.00 in0.0 mm 0.00 in/hr0.0 mm/hr 0.00 in0.0 mm
09:11 AM 28.5°F-1.9°C 25.2°F-3.8°C 87% 12.0 mph ENE19.3 kmh ENE 22.0 mph35.4 kmh 29.84 in1010.5 mb 0.00 in0.0 mm 0.00 in/hr0.0 mm/hr 0.00 in0.0 mm
09:16 AM 28.1°F-2.2°C 24.8°F-4.0°C 87% 9.0 mph ENE14.5 kmh ENE 22.0 mph35.4 kmh 29.84 in1010.5 mb 0.00 in0.0 mm 0.00 in/hr0.0 mm/hr 0.00 in0.0 mm
09:21 AM 27.8°F-2.3°C 24.5°F-4.2°C 87% 9.0 mph ENE14.5 kmh ENE 21.0 mph33.8 kmh 29.84 in1010.5 mb 0.00 in0.0 mm 0.00 in/hr0.0 mm/hr 0.00 in0.0 mm
09:26 AM 27.5°F-2.5°C 24.2°F-4.3°C 87% 16.0 mph ENE25.7 kmh ENE 21.0 mph33.8 kmh 29.85 in1010.8 mb 0.00 in0.0 mm 0.00 in/hr0.0 mm/hr 0.00 in0.0 mm
09:31 AM 27.3°F-2.6°C 24.0°F-4.4°C 87% 12.0 mph NE19.3 kmh NE 20.0 mph32.2 kmh 29.85 in1010.8 mb 0.00 in0.0 mm 0.00 in/hr0.0 mm/hr 0.00 in0.0 mm
09:36 AM 27.0°F-2.8°C 23.7°F-4.6°C 87% 14.0 mph NE22.5 kmh NE 20.0 mph32.2 kmh 29.85 in1010.8 mb 0.00 in0.0 mm 0.00 in/hr0.0 mm/hr 0.00 in0.0 mm
09:41 AM 26.8°F-2.9°C 23.5°F-4.7°C 87% 10.0 mph ENE16.1 kmh ENE 20.0 mph32.2 kmh 29.85 in1010.8 mb 0.00 in0.0 mm 0.00 in/hr0.0 mm/hr 0.00 in0.0 mm
09:46 AM 26.7°F-2.9°C 23.4°F-4.8°C 87% 14.0 mph NE22.5 kmh NE 20.0 mph32.2 kmh 29.86 in1011.2 mb 0.00 in0.0 mm 0.00 in/hr0.0 mm/hr 0.00 in0.0 mm
09:51 AM 26.7°F-2.9°C 23.4°F-4.8°C 87% 10.0 mph NE16.1 kmh NE 18.0 mph29.0 kmh 29.86 in1011.2 mb 0.00 in0.0 mm 0.00 in/hr0.0 mm/hr 0.00 in0.0 mm
09:56 AM 26.6°F-3.0°C 23.3°F-4.8°C 87% 8.0 mph NE12.9 kmh NE 20.0 mph32.2 kmh 29.86 in1011.2 mb 0.00 in0.0 mm 0.00 in/hr0.0 mm/hr 0.00 in0.0 mm
10:01 AM 26.5°F-3.1°C 23.2°F-4.9°C 87% 6.0 mph NE9.7 kmh NE 20.0 mph32.2 kmh 29.87 in1011.5 mb 0.00 in0.0 mm 0.00 in/hr0.0 mm/hr 0.00 in0.0 mm
10:06 AM 26.3°F-3.2°C 23.0°F-5.0°C 87% 12.0 mph NE19.3 kmh NE 22.0 mph35.4 kmh 29.87 in1011.5 mb 0.00 in0.0 mm 0.00 in/hr0.0 mm/hr 0.00 in0.0 mm
10:11 AM 26.1°F-3.3°C 22.8°F-5.1°C 87% 17.0 mph NE27.4 kmh NE 22.0 mph35.4 kmh 29.87 in1011.5 mb 0.00 in0.0 mm 0.00 in/hr0.0 mm/hr 0.00 in0.0 mm
10:16 AM 25.9°F-3.4°C 22.6°F-5.2°C 87% 12.0 mph ENE19.3 kmh ENE 22.0 mph35.4 kmh 29.87 in1011.5 mb 0.00 in0.0 mm 0.00 in/hr0.0 mm/hr 0.00 in0.0 mm
10:21 AM 25.6°F-3.6°C 22.3°F-5.4°C 87% 9.0 mph NE14.5 kmh NE 22.0 mph35.4 kmh 29.87 in1011.5 mb 0.00 in0.0 mm 0.00 in/hr0.0 mm/hr 0.00 in0.0 mm
10:26 AM 25.4°F-3.7°C 22.1°F-5.5°C 87% 16.0 mph NE25.7 kmh NE 23.0 mph37.0 kmh 29.88 in1011.9 mb 0.00 in0.0 mm 0.00 in/hr0.0 mm/hr 0.00 in0.0 mm
10:31 AM 25.2°F-3.8°C 21.9°F-5.6°C 87% 11.0 mph NNE17.7 kmh NNE 23.0 mph37.0 kmh 29.88 in1011.9 mb 0.00 in0.0 mm 0.00 in/hr0.0 mm/hr 0.00 in0.0 mm
10:36 AM 24.9°F-3.9°C 21.4°F-5.9°C 86% 13.0 mph NE20.9 kmh NE 23.0 mph37.0 kmh 29.89 in1012.2 mb 0.00 in0.0 mm 0.00 in/hr0.0 mm/hr 0.00 in0.0 mm
10:41 AM 24.6°F-4.1°C 21.1°F-6.1°C 86% 9.0 mph NE14.5 kmh NE 23.0 mph37.0 kmh 29.89 in1012.2 mb 0.00 in0.0 mm 0.00 in/hr0.0 mm/hr 0.00 in0.0 mm
10:46 AM 24.5°F-4.2°C 21.0°F-6.1°C 86% 8.0 mph NE12.9 kmh NE 23.0 mph37.0 kmh 29.90 in1012.5 mb 0.00 in0.0 mm 0.00 in/hr0.0 mm/hr 0.00 in0.0 mm
10:51 AM 24.5°F-4.2°C 21.0°F-6.1°C 86% 10.0 mph NE16.1 kmh NE 23.0 mph37.0 kmh 29.90 in1012.5 mb 0.00 in0.0 mm 0.00 in/hr0.0 mm/hr 0.00 in0.0 mm
10:56 AM 24.2°F-4.3°C 20.7°F-6.3°C 86% 12.0 mph NE19.3 kmh NE 18.0 mph29.0 kmh 29.90 in1012.5 mb 0.00 in0.0 mm 0.00 in/hr0.0 mm/hr 0.00 in0.0 mm
11:01 AM 24.1°F-4.4°C 20.3°F-6.5°C 85% 7.0 mph NE11.3 kmh NE 18.0 mph29.0 kmh 29.91 in1012.9 mb 0.00 in0.0 mm 0.00 in/hr0.0 mm/hr 0.00 in0.0 mm
11:06 AM 23.9°F-4.5°C 20.1°F-6.6°C 85% 11.0 mph ENE17.7 kmh ENE 17.0 mph27.4 kmh 29.90 in1012.5 mb 0.00 in0.0 mm 0.00 in/hr0.0 mm/hr 0.00 in0.0 mm
11:11 AM 23.8°F-4.6°C 20.0°F-6.7°C 85% 10.0 mph NE16.1 kmh NE 17.0 mph27.4 kmh 29.91 in1012.9 mb 0.00 in0.0 mm 0.00 in/hr0.0 mm/hr 0.00 in0.0 mm
11:16 AM 23.7°F-4.6°C 19.9°F-6.7°C 85% 16.0 mph NE25.7 kmh NE 17.0 mph27.4 kmh 29.90 in1012.5 mb 0.00 in0.0 mm 0.00 in/hr0.0 mm/hr 0.00 in0.0 mm
11:21 AM 23.5°F-4.7°C 19.7°F-6.8°C 85% 12.0 mph NE19.3 kmh NE 21.0 mph33.8 kmh 29.91 in1012.9 mb 0.00 in0.0 mm 0.00 in/hr0.0 mm/hr 0.00 in0.0 mm
11:26 AM 23.4°F-4.8°C 19.3°F-7.1°C 84% 8.0 mph ENE12.9 kmh ENE 21.0 mph33.8 kmh 29.91 in1012.9 mb 0.00 in0.0 mm 0.00 in/hr0.0 mm/hr 0.00 in0.0 mm
11:31 AM 23.2°F-4.9°C 19.1°F-7.2°C 84% 15.0 mph E24.1 kmh E 21.0 mph33.8 kmh 29.91 in1012.9 mb 0.00 in0.0 mm 0.00 in/hr0.0 mm/hr 0.00 in0.0 mm
11:36 AM 23.1°F-4.9°C 19.0°F-7.2°C 84% 15.0 mph NE24.1 kmh NE 21.0 mph33.8 kmh 29.91 in1012.9 mb 0.00 in0.0 mm 0.00 in/hr0.0 mm/hr 0.00 in0.0 mm
11:41 AM 23.1°F-4.9°C 19.0°F-7.2°C 84% 8.0 mph ENE12.9 kmh ENE 21.0 mph33.8 kmh 29.90 in1012.5 mb 0.00 in0.0 mm 0.00 in/hr0.0 mm/hr 0.00 in0.0 mm
11:46 AM 23.1°F-4.9°C 19.0°F-7.2°C 84% 13.0 mph NE20.9 kmh NE 21.0 mph33.8 kmh 29.90 in1012.5 mb 0.00 in0.0 mm 0.00 in/hr0.0 mm/hr 0.00 in0.0 mm
11:51 AM 23.1°F-4.9°C 19.0°F-7.2°C 84% 14.0 mph NE22.5 kmh NE 18.0 mph29.0 kmh 29.90 in1012.5 mb 0.00 in0.0 mm 0.00 in/hr0.0 mm/hr 0.00 in0.0 mm
11:56 AM 22.9°F-5.1°C 18.8°F-7.3°C 84% 6.0 mph NE9.7 kmh NE 19.0 mph30.6 kmh 29.90 in1012.5 mb 0.00 in0.0 mm 0.00 in/hr0.0 mm/hr 0.00 in0.0 mm
12:01 PM 22.8°F-5.1°C 18.7°F-7.4°C 84% 8.0 mph NE12.9 kmh NE 19.0 mph30.6 kmh 29.90 in1012.5 mb 0.00 in0.0 mm 0.00 in/hr0.0 mm/hr 0.00 in0.0 mm
12:06 PM 22.7°F-5.2°C 18.6°F-7.4°C 84% 16.0 mph NE25.7 kmh NE 19.0 mph30.6 kmh 29.90 in1012.5 mb 0.00 in0.0 mm 0.00 in/hr0.0 mm/hr 0.00 in0.0 mm
12:11 PM 22.5°F-5.3°C 18.4°F-7.6°C 84% 7.0 mph NE11.3 kmh NE 20.0 mph32.2 kmh 29.89 in1012.2 mb 0.00 in0.0 mm 0.00 in/hr0.0 mm/hr 0.00 in0.0 mm
12:16 PM 22.5°F-5.3°C 18.4°F-7.6°C 84% 4.0 mph NE6.4 kmh NE 20.0 mph32.2 kmh 29.90 in1012.5 mb 0.00 in0.0 mm 0.00 in/hr0.0 mm/hr 0.00 in0.0 mm
12:21 PM 22.5°F-5.3°C 18.4°F-7.6°C 84% 14.0 mph NE22.5 kmh NE 20.0 mph32.2 kmh 29.89 in1012.2 mb 0.00 in0.0 mm 0.00 in/hr0.0 mm/hr 0.00 in0.0 mm
12:26 PM 22.4°F-5.3°C 18.3°F-7.6°C 84% 9.0 mph NE14.5 kmh NE 20.0 mph32.2 kmh 29.89 in1012.2 mb 0.00 in0.0 mm 0.00 in/hr0.0 mm/hr 0.00 in0.0 mm
12:31 PM 22.4°F-5.3°C 18.3°F-7.6°C 84% 9.0 mph NE14.5 kmh NE 18.0 mph29.0 kmh 29.89 in1012.2 mb 0.00 in0.0 mm 0.00 in/hr0.0 mm/hr 0.00 in0.0 mm
12:36 PM 22.4°F-5.3°C 18.3°F-7.6°C 84% 12.0 mph NE19.3 kmh NE 18.0 mph29.0 kmh 29.89 in1012.2 mb 0.00 in0.0 mm 0.00 in/hr0.0 mm/hr 0.00 in0.0 mm
12:41 PM 22.4°F-5.3°C 18.1°F-7.7°C 83% 7.0 mph NE11.3 kmh NE 18.0 mph29.0 kmh 29.89 in1012.2 mb 0.00 in0.0 mm 0.00 in/hr0.0 mm/hr 0.00 in0.0 mm
12:46 PM 22.4°F-5.3°C 18.1°F-7.7°C 83% 11.0 mph NNE17.7 kmh NNE 18.0 mph29.0 kmh 29.89 in1012.2 mb 0.00 in0.0 mm 0.00 in/hr0.0 mm/hr 0.00 in0.0 mm
12:51 PM 22.4°F-5.3°C 18.1°F-7.7°C 83% 11.0 mph NE17.7 kmh NE 16.0 mph25.7 kmh 29.88 in1011.9 mb 0.00 in0.0 mm 0.00 in/hr0.0 mm/hr 0.00 in0.0 mm
12:56 PM 22.4°F-5.3°C 18.1°F-7.7°C 83% 13.0 mph NE20.9 kmh NE 20.0 mph32.2 kmh 29.88 in1011.9 mb 0.00 in0.0 mm 0.00 in/hr0.0 mm/hr 0.00 in0.0 mm
01:01 PM 22.5°F-5.3°C 18.2°F-7.7°C 83% 13.0 mph NE20.9 kmh NE 20.0 mph32.2 kmh 29.88 in1011.9 mb 0.00 in0.0 mm 0.00 in/hr0.0 mm/hr 0.00 in0.0 mm
01:06 PM 22.5°F-5.3°C 18.2°F-7.7°C 83% 9.0 mph NE14.5 kmh NE 22.0 mph35.4 kmh 29.88 in1011.9 mb 0.00 in0.0 mm 0.00 in/hr0.0 mm/hr 0.00 in0.0 mm
01:11 PM 22.6°F-5.2°C 18.3°F-7.6°C 83% 13.0 mph NE20.9 kmh NE 22.0 mph35.4 kmh 29.87 in1011.5 mb 0.00 in0.0 mm 0.00 in/hr0.0 mm/hr 0.00 in0.0 mm
01:16 PM 22.5°F-5.3°C 18.2°F-7.7°C 83% 9.0 mph NE14.5 kmh NE 22.0 mph35.4 kmh 29.87 in1011.5 mb 0.00 in0.0 mm 0.00 in/hr0.0 mm/hr 0.00 in0.0 mm
01:21 PM 22.6°F-5.2°C 18.3°F-7.6°C 83% 11.0 mph NE17.7 kmh NE 22.0 mph35.4 kmh 29.87 in1011.5 mb 0.00 in0.0 mm 0.00 in/hr0.0 mm/hr 0.00 in0.0 mm
01:26 PM 22.7°F-5.2°C 18.1°F-7.7°C 82% 11.0 mph ENE17.7 kmh ENE 19.0 mph30.6 kmh 29.87 in1011.5 mb 0.00 in0.0 mm 0.00 in/hr0.0 mm/hr 0.00 in0.0 mm
01:31 PM 22.7°F-5.2°C 18.1°F-7.7°C 82% 11.0 mph NE17.7 kmh NE 20.0 mph32.2 kmh 29.87 in1011.5 mb 0.00 in0.0 mm 0.00 in/hr0.0 mm/hr 0.00 in0.0 mm
01:36 PM 22.8°F-5.1°C 18.2°F-7.7°C 82% 11.0 mph NE17.7 kmh NE 20.0 mph32.2 kmh 29.87 in1011.5 mb 0.00 in0.0 mm 0.00 in/hr0.0 mm/hr 0.00 in0.0 mm
01:41 PM 22.8°F-5.1°C 17.9°F-7.8°C 81% 9.0 mph NE14.5 kmh NE 20.0 mph32.2 kmh 29.87 in1011.5 mb 0.00 in0.0 mm 0.00 in/hr0.0 mm/hr 0.00 in0.0 mm
01:46 PM 22.9°F-5.1°C 18.0°F-7.8°C 81% 11.0 mph ENE17.7 kmh ENE 20.0 mph32.2 kmh 29.87 in1011.5 mb 0.00 in0.0 mm 0.00 in/hr0.0 mm/hr 0.00 in0.0 mm
01:51 PM 23.0°F-5.0°C 18.1°F-7.7°C 81% 14.0 mph NE22.5 kmh NE 18.0 mph29.0 kmh 29.87 in1011.5 mb 0.00 in0.0 mm 0.00 in/hr0.0 mm/hr 0.00 in0.0 mm
01:56 PM 23.1°F-4.9°C 18.2°F-7.7°C 81% 11.0 mph NE17.7 kmh NE 18.0 mph29.0 kmh 29.87 in1011.5 mb 0.00 in0.0 mm 0.00 in/hr0.0 mm/hr 0.00 in0.0 mm
02:01 PM 23.1°F-4.9°C 18.2°F-7.7°C 81% 14.0 mph NE22.5 kmh NE 18.0 mph29.0 kmh 29.87 in1011.5 mb 0.00 in0.0 mm 0.00 in/hr0.0 mm/hr 0.00 in0.0 mm
02:06 PM 23.1°F-4.9°C 18.2°F-7.7°C 81% 10.0 mph NE16.1 kmh NE 18.0 mph29.0 kmh 29.87 in1011.5 mb 0.00 in0.0 mm 0.00 in/hr0.0 mm/hr 0.00 in0.0 mm
02:11 PM 23.1°F-4.9°C 18.2°F-7.7°C 81% 8.0 mph ENE12.9 kmh ENE 18.0 mph29.0 kmh 29.87 in1011.5 mb 0.00 in0.0 mm 0.00 in/hr0.0 mm/hr 0.00 in0.0 mm
02:16 PM 23.2°F-4.9°C 18.3°F-7.6°C 81% 6.0 mph NE9.7 kmh NE 14.0 mph22.5 kmh 29.87 in1011.5 mb 0.00 in0.0 mm 0.00 in/hr0.0 mm/hr 0.00 in0.0 mm
02:21 PM 23.2°F-4.9°C 18.3°F-7.6°C 81% 6.0 mph NE9.7 kmh NE 14.0 mph22.5 kmh 29.87 in1011.5 mb 0.00 in0.0 mm 0.00 in/hr0.0 mm/hr 0.00 in0.0 mm
02:26 PM 23.3°F-4.8°C 18.4°F-7.6°C 81% 14.0 mph NE22.5 kmh NE 19.0 mph30.6 kmh 29.87 in1011.5 mb 0.00 in0.0 mm 0.00 in/hr0.0 mm/hr 0.00 in0.0 mm
02:31 PM 23.2°F-4.9°C 18.3°F-7.6°C 81% 9.0 mph NE14.5 kmh NE 19.0 mph30.6 kmh 29.87 in1011.5 mb 0.00 in0.0 mm 0.00 in/hr0.0 mm/hr 0.00 in0.0 mm
02:36 PM 23.2°F-4.9°C 18.0°F-7.8°C 80% 10.0 mph NE16.1 kmh NE 19.0 mph30.6 kmh 29.87 in1011.5 mb 0.00 in0.0 mm 0.00 in/hr0.0 mm/hr 0.00 in0.0 mm
02:41 PM 23.0°F-5.0°C 17.8°F-7.9°C 80% 11.0 mph NE17.7 kmh NE 19.0 mph30.6 kmh 29.87 in1011.5 mb 0.00 in0.0 mm 0.00 in/hr0.0 mm/hr 0.00 in0.0 mm
02:46 PM 22.9°F-5.1°C 17.7°F-7.9°C 80% 17.0 mph NE27.4 kmh NE 22.0 mph35.4 kmh 29.87 in1011.5 mb 0.00 in0.0 mm 0.00 in/hr0.0 mm/hr 0.00 in0.0 mm
02:51 PM 22.8°F-5.1°C 17.6°F-8.0°C 80% 11.0 mph NE17.7 kmh NE 22.0 mph35.4 kmh 29.87 in1011.5 mb 0.00 in0.0 mm 0.00 in/hr0.0 mm/hr 0.00 in0.0 mm
02:56 PM 22.7°F-5.2°C 17.5°F-8.1°C 80% 9.0 mph NE14.5 kmh NE 22.0 mph35.4 kmh 29.87 in1011.5 mb 0.00 in0.0 mm 0.00 in/hr0.0 mm/hr 0.00 in0.0 mm
03:01 PM 22.6°F-5.2°C 17.1°F-8.3°C 79% 12.0 mph NE19.3 kmh NE 22.0 mph35.4 kmh 29.87 in1011.5 mb 0.00 in0.0 mm 0.00 in/hr0.0 mm/hr 0.00 in0.0 mm
03:06 PM 22.5°F-5.3°C 17.0°F-8.3°C 79% 16.0 mph ENE25.7 kmh ENE 22.0 mph35.4 kmh 29.87 in1011.5 mb 0.00 in0.0 mm 0.00 in/hr0.0 mm/hr 0.00 in0.0 mm
03:11 PM 22.4°F-5.3°C 16.9°F-8.4°C 79% 11.0 mph ENE17.7 kmh ENE 22.0 mph35.4 kmh 29.87 in1011.5 mb 0.00 in0.0 mm 0.00 in/hr0.0 mm/hr 0.00 in0.0 mm
03:16 PM 22.5°F-5.3°C 17.0°F-8.3°C 79% 13.0 mph ENE20.9 kmh ENE 21.0 mph33.8 kmh 29.87 in1011.5 mb 0.00 in0.0 mm 0.00 in/hr0.0 mm/hr 0.00 in0.0 mm
03:21 PM 22.5°F-5.3°C 17.0°F-8.3°C 79% 17.0 mph NE27.4 kmh NE 22.0 mph35.4 kmh 29.87 in1011.5 mb 0.00 in0.0 mm 0.00 in/hr0.0 mm/hr 0.00 in0.0 mm
03:26 PM 22.5°F-5.3°C 17.0°F-8.3°C 79% 10.0 mph NE16.1 kmh NE 22.0 mph35.4 kmh 29.87 in1011.5 mb 0.00 in0.0 mm 0.00 in/hr0.0 mm/hr 0.00 in0.0 mm
03:31 PM 22.5°F-5.3°C 17.0°F-8.3°C 79% 14.0 mph ENE22.5 kmh ENE 22.0 mph35.4 kmh 29.87 in1011.5 mb 0.00 in0.0 mm 0.00 in/hr0.0 mm/hr 0.00 in0.0 mm
03:36 PM 22.4°F-5.3°C 16.9°F-8.4°C 79% 13.0 mph NE20.9 kmh NE 22.0 mph35.4 kmh 29.87 in1011.5 mb 0.00 in0.0 mm 0.00 in/hr0.0 mm/hr 0.00 in0.0 mm
03:41 PM 22.3°F-5.4°C 16.8°F-8.4°C 79% 14.0 mph NE22.5 kmh NE 21.0 mph33.8 kmh 29.88 in1011.9 mb 0.00 in0.0 mm 0.00 in/hr0.0 mm/hr 0.00 in0.0 mm
03:46 PM 22.3°F-5.4°C 17.1°F-8.3°C 80% 11.0 mph NE17.7 kmh NE 21.0 mph33.8 kmh 29.88 in1011.9 mb 0.00 in0.0 mm 0.00 in/hr0.0 mm/hr 0.00 in0.0 mm
03:51 PM 22.2°F-5.4°C 17.3°F-8.2°C 81% 7.0 mph ENE11.3 kmh ENE 19.0 mph30.6 kmh 29.87 in1011.5 mb 0.00 in0.0 mm 0.00 in/hr0.0 mm/hr 0.00 in0.0 mm
03:56 PM 22.2°F-5.4°C 17.6°F-8.0°C 82% 8.0 mph NE12.9 kmh NE 19.0 mph30.6 kmh 29.88 in1011.9 mb 0.00 in0.0 mm 0.00 in/hr0.0 mm/hr 0.00 in0.0 mm
04:01 PM 22.1°F-5.5°C 17.8°F-7.9°C 83% 4.0 mph ENE6.4 kmh ENE 15.0 mph24.1 kmh 29.88 in1011.9 mb 0.00 in0.0 mm 0.00 in/hr0.0 mm/hr 0.00 in0.0 mm
04:06 PM 22.1°F-5.5°C 17.8°F-7.9°C 83% 3.0 mph ENE4.8 kmh ENE 15.0 mph24.1 kmh 29.88 in1011.9 mb 0.00 in0.0 mm 0.00 in/hr0.0 mm/hr 0.00 in0.0 mm
04:11 PM 22.0°F-5.6°C 17.9°F-7.8°C 84% 10.0 mph E16.1 kmh E 15.0 mph24.1 kmh 29.88 in1011.9 mb 0.00 in0.0 mm 0.00 in/hr0.0 mm/hr 0.00 in0.0 mm
04:16 PM 21.9°F-5.6°C 17.9°F-7.8°C 84% 5.0 mph NE8.0 kmh NE 16.0 mph25.7 kmh 29.88 in1011.9 mb 0.00 in0.0 mm 0.00 in/hr0.0 mm/hr 0.00 in0.0 mm
04:21 PM 22.0°F-5.6°C 17.9°F-7.8°C 84% 12.0 mph NE19.3 kmh NE 16.0 mph25.7 kmh 29.88 in1011.9 mb 0.00 in0.0 mm 0.00 in/hr0.0 mm/hr 0.00 in0.0 mm
04:26 PM 22.0°F-5.6°C 18.2°F-7.7°C 85% 9.0 mph ENE14.5 kmh ENE 16.0 mph25.7 kmh 29.88 in1011.9 mb 0.00 in0.0 mm 0.00 in/hr0.0 mm/hr 0.00 in0.0 mm
04:31 PM 22.0°F-5.6°C 18.2°F-7.7°C 85% 9.0 mph NE14.5 kmh NE 16.0 mph25.7 kmh 29.88 in1011.9 mb 0.00 in0.0 mm 0.00 in/hr0.0 mm/hr 0.00 in0.0 mm
04:36 PM 22.0°F-5.6°C 18.2°F-7.7°C 85% 9.0 mph ENE14.5 kmh ENE 16.0 mph25.7 kmh 29.89 in1012.2 mb 0.00 in0.0 mm 0.00 in/hr0.0 mm/hr 0.00 in0.0 mm
04:41 PM 22.1°F-5.5°C 18.3°F-7.6°C 85% 7.0 mph ESE11.3 kmh ESE 16.0 mph25.7 kmh 29.89 in1012.2 mb 0.00 in0.0 mm 0.00 in/hr0.0 mm/hr 0.00 in0.0 mm
04:46 PM 22.1°F-5.5°C 18.3°F-7.6°C 85% 2.0 mph NE3.2 kmh NE 16.0 mph25.7 kmh 29.89 in1012.2 mb 0.00 in0.0 mm 0.00 in/hr0.0 mm/hr 0.00 in0.0 mm
04:51 PM 22.1°F-5.5°C 18.3°F-7.6°C 85% 7.0 mph ENE11.3 kmh ENE 17.0 mph27.4 kmh 29.89 in1012.2 mb 0.00 in0.0 mm 0.00 in/hr0.0 mm/hr 0.00 in0.0 mm
04:56 PM 22.1°F-5.5°C 18.6°F-7.4°C 86% 7.0 mph NE11.3 kmh NE 17.0 mph27.4 kmh 29.89 in1012.2 mb 0.00 in0.0 mm 0.00 in/hr0.0 mm/hr 0.00 in0.0 mm
05:01 PM 22.1°F-5.5°C 18.6°F-7.4°C 86% 7.0 mph E11.3 kmh E 17.0 mph27.4 kmh 29.89 in1012.2 mb 0.00 in0.0 mm 0.00 in/hr0.0 mm/hr 0.00 in0.0 mm
05:06 PM 22.1°F-5.5°C 18.6°F-7.4°C 86% 4.0 mph ENE6.4 kmh ENE 17.0 mph27.4 kmh 29.89 in1012.2 mb 0.00 in0.0 mm 0.00 in/hr0.0 mm/hr 0.00 in0.0 mm
05:11 PM 22.0°F-5.6°C 18.5°F-7.5°C 86% 6.0 mph NE9.7 kmh NE 17.0 mph27.4 kmh 29.89 in1012.2 mb 0.00 in0.0 mm 0.00 in/hr0.0 mm/hr 0.00 in0.0 mm
05:16 PM 21.9°F-5.6°C 18.4°F-7.6°C 86% 8.0 mph E12.9 kmh E 17.0 mph27.4 kmh 29.89 in1012.2 mb 0.00 in0.0 mm 0.00 in/hr0.0 mm/hr 0.00 in0.0 mm
05:21 PM 21.8°F-5.7°C 18.3°F-7.6°C 86% 5.0 mph ENE8.0 kmh ENE 21.0 mph33.8 kmh 29.89 in1012.2 mb 0.00 in0.0 mm 0.00 in/hr0.0 mm/hr 0.00 in0.0 mm
05:26 PM 21.7°F-5.7°C 18.2°F-7.7°C 86% 13.0 mph E20.9 kmh E 21.0 mph33.8 kmh 29.89 in1012.2 mb 0.00 in0.0 mm 0.00 in/hr0.0 mm/hr 0.00 in0.0 mm
05:31 PM 21.6°F-5.8°C 18.1°F-7.7°C 86% 7.0 mph NE11.3 kmh NE 21.0 mph33.8 kmh 29.89 in1012.2 mb 0.00 in0.0 mm 0.00 in/hr0.0 mm/hr 0.00 in0.0 mm
05:36 PM 21.6°F-5.8°C 18.1°F-7.7°C 86% 6.0 mph NE9.7 kmh NE 22.0 mph35.4 kmh 29.89 in1012.2 mb 0.00 in0.0 mm 0.00 in/hr0.0 mm/hr 0.00 in0.0 mm
05:41 PM 21.5°F-5.8°C 18.0°F-7.8°C 86% 9.0 mph NE14.5 kmh NE 24.0 mph38.6 kmh 29.89 in1012.2 mb 0.00 in0.0 mm 0.00 in/hr0.0 mm/hr 0.00 in0.0 mm
05:46 PM 21.4°F-5.9°C 17.9°F-7.8°C 86% 12.0 mph ENE19.3 kmh ENE 24.0 mph38.6 kmh 29.89 in1012.2 mb 0.00 in0.0 mm 0.00 in/hr0.0 mm/hr 0.00 in0.0 mm
05:51 PM 21.4°F-5.9°C 17.9°F-7.8°C 86% 13.0 mph NE20.9 kmh NE 24.0 mph38.6 kmh 29.90 in1012.5 mb 0.00 in0.0 mm 0.00 in/hr0.0 mm/hr 0.00 in0.0 mm
05:56 PM 21.4°F-5.9°C 17.9°F-7.8°C 86% 16.0 mph NE25.7 kmh NE 24.0 mph38.6 kmh 29.90 in1012.5 mb 0.00 in0.0 mm 0.00 in/hr0.0 mm/hr 0.00 in0.0 mm
06:01 PM 21.4°F-5.9°C 17.9°F-7.8°C 86% 11.0 mph NE17.7 kmh NE 21.0 mph33.8 kmh 29.90 in1012.5 mb 0.00 in0.0 mm 0.00 in/hr0.0 mm/hr 0.00 in0.0 mm
06:06 PM 21.3°F-5.9°C 17.8°F-7.9°C 86% 9.0 mph NE14.5 kmh NE 21.0 mph33.8 kmh 29.90 in1012.5 mb 0.00 in0.0 mm 0.00 in/hr0.0 mm/hr 0.00 in0.0 mm
06:11 PM 21.2°F-6.0°C 17.7°F-7.9°C 86% 7.0 mph NNE11.3 kmh NNE 19.0 mph30.6 kmh 29.91 in1012.9 mb 0.00 in0.0 mm 0.00 in/hr0.0 mm/hr 0.00 in0.0 mm
06:16 PM 21.1°F-6.1°C 17.6°F-8.0°C 86% 9.0 mph E14.5 kmh E 22.0 mph35.4 kmh 29.91 in1012.9 mb 0.00 in0.0 mm 0.00 in/hr0.0 mm/hr 0.00 in0.0 mm
06:21 PM 21.0°F-6.1°C 17.5°F-8.1°C 86% 8.0 mph ENE12.9 kmh ENE 22.0 mph35.4 kmh 29.91 in1012.9 mb 0.00 in0.0 mm 0.00 in/hr0.0 mm/hr 0.00 in0.0 mm
06:26 PM 21.0°F-6.1°C 17.5°F-8.1°C 86% 11.0 mph ENE17.7 kmh ENE 22.0 mph35.4 kmh 29.91 in1012.9 mb 0.00 in0.0 mm 0.00 in/hr0.0 mm/hr 0.00 in0.0 mm
06:31 PM 20.9°F-6.2°C 17.4°F-8.1°C 86% 9.0 mph NE14.5 kmh NE 22.0 mph35.4 kmh 29.91 in1012.9 mb 0.00 in0.0 mm 0.00 in/hr0.0 mm/hr 0.00 in0.0 mm
06:36 PM 20.8°F-6.2°C 17.3°F-8.2°C 86% 6.0 mph NE9.7 kmh NE 20.0 mph32.2 kmh 29.91 in1012.9 mb 0.00 in0.0 mm 0.00 in/hr0.0 mm/hr 0.00 in0.0 mm
06:41 PM 20.7°F-6.3°C 17.2°F-8.2°C 86% 5.0 mph E8.0 kmh E 20.0 mph32.2 kmh 29.92 in1013.2 mb 0.00 in0.0 mm 0.00 in/hr0.0 mm/hr 0.00 in0.0 mm
06:46 PM 20.6°F-6.3°C 17.1°F-8.3°C 86% 7.0 mph NE11.3 kmh NE 19.0 mph30.6 kmh 29.92 in1013.2 mb 0.00 in0.0 mm 0.00 in/hr0.0 mm/hr 0.00 in0.0 mm
06:51 PM 20.6°F-6.3°C 17.1°F-8.3°C 86% 3.0 mph E4.8 kmh E 19.0 mph30.6 kmh 29.92 in1013.2 mb 0.00 in0.0 mm 0.00 in/hr0.0 mm/hr 0.00 in0.0 mm
06:56 PM 20.5°F-6.4°C 17.0°F-8.3°C 86% 8.0 mph ESE12.9 kmh ESE 17.0 mph27.4 kmh 29.92 in1013.2 mb 0.00 in0.0 mm 0.00 in/hr0.0 mm/hr 0.00 in0.0 mm
07:01 PM 20.4°F-6.4°C 16.9°F-8.4°C 86% 8.0 mph ENE12.9 kmh ENE 17.0 mph27.4 kmh 29.92 in1013.2 mb 0.00 in0.0 mm 0.00 in/hr0.0 mm/hr 0.00 in0.0 mm
07:06 PM 20.3°F-6.5°C 16.8°F-8.4°C 86% 11.0 mph E17.7 kmh E 17.0 mph27.4 kmh 29.93 in1013.5 mb 0.00 in0.0 mm 0.00 in/hr0.0 mm/hr 0.00 in0.0 mm
07:11 PM 20.2°F-6.6°C 16.7°F-8.5°C 86% 15.0 mph ENE24.1 kmh ENE 17.0 mph27.4 kmh 29.93 in1013.5 mb 0.00 in0.0 mm 0.00 in/hr0.0 mm/hr 0.00 in0.0 mm
07:16 PM 20.2°F-6.6°C 16.7°F-8.5°C 86% 7.0 mph ENE11.3 kmh ENE 24.0 mph38.6 kmh 29.93 in1013.5 mb 0.00 in0.0 mm 0.00 in/hr0.0 mm/hr 0.00 in0.0 mm
07:21 PM 20.2°F-6.6°C 16.7°F-8.5°C 86% 6.0 mph E9.7 kmh E 24.0 mph38.6 kmh 29.93 in1013.5 mb 0.00 in0.0 mm 0.00 in/hr0.0 mm/hr 0.00 in0.0 mm
07:26 PM 20.1°F-6.6°C 16.6°F-8.6°C 86% 5.0 mph E8.0 kmh E 24.0 mph38.6 kmh 29.94 in1013.9 mb 0.00 in0.0 mm 0.00 in/hr0.0 mm/hr 0.00 in0.0 mm
07:31 PM 20.1°F-6.6°C 16.6°F-8.6°C 86% 5.0 mph E8.0 kmh E 24.0 mph38.6 kmh 29.93 in1013.5 mb 0.00 in0.0 mm 0.00 in/hr0.0 mm/hr 0.00 in0.0 mm
07:36 PM 20.1°F-6.6°C 16.6°F-8.6°C 86% 5.0 mph E8.0 kmh E 16.0 mph25.7 kmh 29.93 in1013.5 mb 0.00 in0.0 mm 0.00 in/hr0.0 mm/hr 0.00 in0.0 mm
07:41 PM 20.1°F-6.6°C 16.6°F-8.6°C 86% 8.0 mph N12.9 kmh N 21.0 mph33.8 kmh 29.93 in1013.5 mb 0.00 in0.0 mm 0.00 in/hr0.0 mm/hr 0.00 in0.0 mm
07:46 PM 20.1°F-6.6°C 16.6°F-8.6°C 86% 13.0 mph ENE20.9 kmh ENE 21.0 mph33.8 kmh 29.93 in1013.5 mb 0.00 in0.0 mm 0.00 in/hr0.0 mm/hr 0.00 in0.0 mm
07:51 PM 20.0°F-6.7°C 16.5°F-8.6°C 86% 5.0 mph NE8.0 kmh NE 21.0 mph33.8 kmh 29.93 in1013.5 mb 0.00 in0.0 mm 0.00 in/hr0.0 mm/hr 0.00 in0.0 mm
07:56 PM 20.0°F-6.7°C 16.5°F-8.6°C 86% 12.0 mph SE19.3 kmh SE 21.0 mph33.8 kmh 29.93 in1013.5 mb 0.00 in0.0 mm 0.00 in/hr0.0 mm/hr 0.00 in0.0 mm
08:01 PM 20.0°F-6.7°C 16.5°F-8.6°C 86% 4.0 mph NE6.4 kmh NE 17.0 mph27.4 kmh 29.93 in1013.5 mb 0.00 in0.0 mm 0.00 in/hr0.0 mm/hr 0.00 in0.0 mm
08:06 PM 20.0°F-6.7°C 16.5°F-8.6°C 86% 7.0 mph ENE11.3 kmh ENE 17.0 mph27.4 kmh 29.94 in1013.9 mb 0.00 in0.0 mm 0.00 in/hr0.0 mm/hr 0.00 in0.0 mm
08:11 PM 20.0°F-6.7°C 16.5°F-8.6°C 86% 9.0 mph ENE14.5 kmh ENE 20.0 mph32.2 kmh 29.93 in1013.5 mb 0.00 in0.0 mm 0.00 in/hr0.0 mm/hr 0.00 in0.0 mm
08:16 PM 20.0°F-6.7°C 16.5°F-8.6°C 86% 12.0 mph ENE19.3 kmh ENE 20.0 mph32.2 kmh 29.93 in1013.5 mb 0.00 in0.0 mm 0.00 in/hr0.0 mm/hr 0.00 in0.0 mm
08:21 PM 20.0°F-6.7°C 16.5°F-8.6°C 86% 4.0 mph NE6.4 kmh NE 20.0 mph32.2 kmh 29.93 in1013.5 mb 0.00 in0.0 mm 0.00 in/hr0.0 mm/hr 0.00 in0.0 mm
08:26 PM 20.0°F-6.7°C 16.5°F-8.6°C 86% 7.0 mph ENE11.3 kmh ENE 22.0 mph35.4 kmh 29.93 in1013.5 mb 0.00 in0.0 mm 0.00 in/hr0.0 mm/hr 0.00 in0.0 mm
08:31 PM 20.0°F-6.7°C 16.5°F-8.6°C 86% 8.0 mph NE12.9 kmh NE 22.0 mph35.4 kmh 29.93 in1013.5 mb 0.00 in0.0 mm 0.00 in/hr0.0 mm/hr 0.00 in0.0 mm
08:36 PM 20.1°F-6.6°C 16.6°F-8.6°C 86% 10.0 mph ENE16.1 kmh ENE 22.0 mph35.4 kmh 29.93 in1013.5 mb 0.00 in0.0 mm 0.00 in/hr0.0 mm/hr 0.00 in0.0 mm
08:41 PM 20.1°F-6.6°C 16.6°F-8.6°C 86% 6.0 mph NE9.7 kmh NE 22.0 mph35.4 kmh 29.93 in1013.5 mb 0.00 in0.0 mm 0.00 in/hr0.0 mm/hr 0.00 in0.0 mm
08:46 PM 20.1°F-6.6°C 16.6°F-8.6°C 86% 2.0 mph NE3.2 kmh NE 17.0 mph27.4 kmh 29.93 in1013.5 mb 0.00 in0.0 mm 0.00 in/hr0.0 mm/hr 0.00 in0.0 mm
08:51 PM 20.2°F-6.6°C 16.7°F-8.5°C 86% 6.0 mph NNE9.7 kmh NNE 17.0 mph27.4 kmh 29.93 in1013.5 mb 0.00 in0.0 mm 0.00 in/hr0.0 mm/hr 0.00 in0.0 mm
08:56 PM 20.2°F-6.6°C 16.7°F-8.5°C 86% 5.0 mph NE8.0 kmh NE 18.0 mph29.0 kmh 29.93 in1013.5 mb 0.00 in0.0 mm 0.00 in/hr0.0 mm/hr 0.00 in0.0 mm
09:01 PM 20.2°F-6.6°C 16.7°F-8.5°C 86% 13.0 mph NE20.9 kmh NE 19.0 mph30.6 kmh 29.93 in1013.5 mb 0.00 in0.0 mm 0.00 in/hr0.0 mm/hr 0.00 in0.0 mm
09:06 PM 20.1°F-6.6°C 16.6°F-8.6°C 86% 8.0 mph ENE12.9 kmh ENE 21.0 mph33.8 kmh 29.93 in1013.5 mb 0.00 in0.0 mm 0.00 in/hr0.0 mm/hr 0.00 in0.0 mm
09:11 PM 20.1°F-6.6°C 16.4°F-8.7°C 85% 15.0 mph NE24.1 kmh NE 21.0 mph33.8 kmh 29.93 in1013.5 mb 0.00 in0.0 mm 0.00 in/hr0.0 mm/hr 0.00 in0.0 mm
09:16 PM 20.1°F-6.6°C 16.4°F-8.7°C 85% 7.0 mph E11.3 kmh E 21.0 mph33.8 kmh 29.93 in1013.5 mb 0.00 in0.0 mm 0.00 in/hr0.0 mm/hr 0.00 in0.0 mm
09:21 PM 20.1°F-6.6°C 16.4°F-8.7°C 85% 13.0 mph NE20.9 kmh NE 21.0 mph33.8 kmh 29.93 in1013.5 mb 0.00 in0.0 mm 0.00 in/hr0.0 mm/hr 0.00 in0.0 mm
09:26 PM 20.2°F-6.6°C 16.5°F-8.6°C 85% 14.0 mph ENE22.5 kmh ENE 25.0 mph40.2 kmh 29.92 in1013.2 mb 0.00 in0.0 mm 0.00 in/hr0.0 mm/hr 0.00 in0.0 mm
09:31 PM 20.2°F-6.6°C 16.5°F-8.6°C 85% 17.0 mph ENE27.4 kmh ENE 25.0 mph40.2 kmh 29.93 in1013.5 mb 0.00 in0.0 mm 0.00 in/hr0.0 mm/hr 0.00 in0.0 mm
09:36 PM 20.3°F-6.5°C 16.6°F-8.6°C 85% 12.0 mph ENE19.3 kmh ENE 25.0 mph40.2 kmh 29.93 in1013.5 mb 0.00 in0.0 mm 0.00 in/hr0.0 mm/hr 0.00 in0.0 mm
09:41 PM 20.3°F-6.5°C 16.6°F-8.6°C 85% 10.0 mph NE16.1 kmh NE 25.0 mph40.2 kmh 29.92 in1013.2 mb 0.00 in0.0 mm 0.00 in/hr0.0 mm/hr 0.00 in0.0 mm
09:46 PM 20.3°F-6.5°C 16.6°F-8.6°C 85% 16.0 mph NE25.7 kmh NE 23.0 mph37.0 kmh 29.92 in1013.2 mb 0.00 in0.0 mm 0.00 in/hr0.0 mm/hr 0.00 in0.0 mm
09:51 PM 20.4°F-6.4°C 16.4°F-8.7°C 84% 15.0 mph NE24.1 kmh NE 27.0 mph43.5 kmh 29.92 in1013.2 mb 0.00 in0.0 mm 0.00 in/hr0.0 mm/hr 0.00 in0.0 mm
09:56 PM 20.4°F-6.4°C 16.4°F-8.7°C 84% 14.0 mph NE22.5 kmh NE 27.0 mph43.5 kmh 29.92 in1013.2 mb 0.00 in0.0 mm 0.00 in/hr0.0 mm/hr 0.00 in0.0 mm
10:01 PM 20.5°F-6.4°C 16.5°F-8.6°C 84% 14.0 mph ENE22.5 kmh ENE 27.0 mph43.5 kmh 29.92 in1013.2 mb 0.00 in0.0 mm 0.00 in/hr0.0 mm/hr 0.00 in0.0 mm
10:06 PM 20.6°F-6.3°C 16.6°F-8.6°C 84% 14.0 mph NE22.5 kmh NE 27.0 mph43.5 kmh 29.92 in1013.2 mb 0.00 in0.0 mm 0.00 in/hr0.0 mm/hr 0.00 in0.0 mm
10:11 PM 20.7°F-6.3°C 16.7°F-8.5°C 84% 14.0 mph ENE22.5 kmh ENE 24.0 mph38.6 kmh 29.92 in1013.2 mb 0.00 in0.0 mm 0.00 in/hr0.0 mm/hr 0.00 in0.0 mm
10:16 PM 20.7°F-6.3°C 16.7°F-8.5°C 84% 12.0 mph NE19.3 kmh NE 24.0 mph38.6 kmh 29.92 in1013.2 mb 0.00 in0.0 mm 0.00 in/hr0.0 mm/hr 0.00 in0.0 mm
10:21 PM 20.7°F-6.3°C 16.7°F-8.5°C 84% 12.0 mph ENE19.3 kmh ENE 24.0 mph38.6 kmh 29.92 in1013.2 mb 0.00 in0.0 mm 0.00 in/hr0.0 mm/hr 0.00 in0.0 mm
10:26 PM 20.7°F-6.3°C 16.7°F-8.5°C 84% 14.0 mph NE22.5 kmh NE 24.0 mph38.6 kmh 29.92 in1013.2 mb 0.00 in0.0 mm 0.00 in/hr0.0 mm/hr 0.00 in0.0 mm
10:31 PM 20.8°F-6.2°C 16.8°F-8.4°C 84% 10.0 mph NNE16.1 kmh NNE 24.0 mph38.6 kmh 29.93 in1013.5 mb 0.00 in0.0 mm 0.00 in/hr0.0 mm/hr 0.00 in0.0 mm
10:36 PM 20.7°F-6.3°C 16.7°F-8.5°C 84% 18.0 mph ENE29.0 kmh ENE 26.0 mph41.8 kmh 29.93 in1013.5 mb 0.00 in0.0 mm 0.00 in/hr0.0 mm/hr 0.00 in0.0 mm
10:41 PM 20.7°F-6.3°C 16.7°F-8.5°C 84% 14.0 mph NE22.5 kmh NE 26.0 mph41.8 kmh 29.93 in1013.5 mb 0.00 in0.0 mm 0.00 in/hr0.0 mm/hr 0.00 in0.0 mm
10:46 PM 20.6°F-6.3°C 16.6°F-8.6°C 84% 19.0 mph NE30.6 kmh NE 26.0 mph41.8 kmh 29.93 in1013.5 mb 0.00 in0.0 mm 0.00 in/hr0.0 mm/hr 0.00 in0.0 mm
10:51 PM 20.6°F-6.3°C 16.6°F-8.6°C 84% 8.0 mph NNE12.9 kmh NNE 26.0 mph41.8 kmh 29.93 in1013.5 mb 0.00 in0.0 mm 0.00 in/hr0.0 mm/hr 0.00 in0.0 mm
10:56 PM 20.6°F-6.3°C 16.6°F-8.6°C 84% 13.0 mph NE20.9 kmh NE 23.0 mph37.0 kmh 29.93 in1013.5 mb 0.00 in0.0 mm 0.00 in/hr0.0 mm/hr 0.00 in0.0 mm
11:01 PM 20.6°F-6.3°C 16.6°F-8.6°C 84% 11.0 mph NE17.7 kmh NE 23.0 mph37.0 kmh 29.93 in1013.5 mb 0.00 in0.0 mm 0.00 in/hr0.0 mm/hr 0.00 in0.0 mm
11:06 PM 20.6°F-6.3°C 16.6°F-8.6°C 84% 11.0 mph NE17.7 kmh NE 21.0 mph33.8 kmh 29.93 in1013.5 mb 0.00 in0.0 mm 0.00 in/hr0.0 mm/hr 0.00 in0.0 mm
11:11 PM 20.5°F-6.4°C 16.5°F-8.6°C 84% 10.0 mph NE16.1 kmh NE 22.0 mph35.4 kmh 29.93 in1013.5 mb 0.00 in0.0 mm 0.00 in/hr0.0 mm/hr 0.00 in0.0 mm
11:16 PM 20.4°F-6.4°C 16.4°F-8.7°C 84% 14.0 mph NE22.5 kmh NE 22.0 mph35.4 kmh 29.93 in1013.5 mb 0.00 in0.0 mm 0.00 in/hr0.0 mm/hr 0.00 in0.0 mm
11:21 PM 20.2°F-6.6°C 16.2°F-8.8°C 84% 9.0 mph NE14.5 kmh NE 24.0 mph38.6 kmh 29.93 in1013.5 mb 0.00 in0.0 mm 0.00 in/hr0.0 mm/hr 0.00 in0.0 mm
11:26 PM 20.2°F-6.6°C 16.5°F-8.6°C 85% 9.0 mph NE14.5 kmh NE 24.0 mph38.6 kmh 29.92 in1013.2 mb 0.00 in0.0 mm 0.00 in/hr0.0 mm/hr 0.00 in0.0 mm
11:31 PM 20.1°F-6.6°C 16.4°F-8.7°C 85% 13.0 mph NE20.9 kmh NE 24.0 mph38.6 kmh 29.93 in1013.5 mb 0.00 in0.0 mm 0.00 in/hr0.0 mm/hr 0.00 in0.0 mm
11:36 PM 20.1°F-6.6°C 16.4°F-8.7°C 85% 15.0 mph ENE24.1 kmh ENE 24.0 mph38.6 kmh 29.93 in1013.5 mb 0.00 in0.0 mm 0.00 in/hr0.0 mm/hr 0.00 in0.0 mm
11:41 PM 20.1°F-6.6°C 16.4°F-8.7°C 85% 7.0 mph NNE11.3 kmh NNE 21.0 mph33.8 kmh 29.93 in1013.5 mb 0.00 in0.0 mm 0.00 in/hr0.0 mm/hr 0.00 in0.0 mm
11:46 PM 20.1°F-6.6°C 16.4°F-8.7°C 85% 9.0 mph NE14.5 kmh NE 21.0 mph33.8 kmh 29.93 in1013.5 mb 0.00 in0.0 mm 0.00 in/hr0.0 mm/hr 0.00 in0.0 mm
11:51 PM 20.1°F-6.6°C 16.4°F-8.7°C 85% 16.0 mph NNE25.7 kmh NNE 20.0 mph32.2 kmh 29.93 in1013.5 mb 0.00 in0.0 mm 0.00 in/hr0.0 mm/hr 0.00 in0.0 mm
11:56 PM 20.1°F-6.6°C 16.6°F-8.6°C 86% 10.0 mph ENE16.1 kmh ENE 20.0 mph32.2 kmh 29.92 in1013.2 mb 0.00 in0.0 mm 0.00 in/hr0.0 mm/hr 0.00 in0.0 mm